sensor_id;sensor_type;location;lat;lon;timestamp;temperature;humidity
35495;DHT22;75532;49.300;6.846;2024-03-23T00:52:30;22.40;50.30
35495;DHT22;75532;49.300;6.846;2024-03-23T00:55:31;22.40;50.30
35495;DHT22;75532;49.300;6.846;2024-03-23T00:58:31;22.40;50.30
35495;DHT22;75532;49.300;6.846;2024-03-23T01:01:32;22.40;50.30
35495;DHT22;75532;49.300;6.846;2024-03-23T01:04:33;22.40;50.30
35495;DHT22;75532;49.300;6.846;2024-03-23T01:07:33;22.40;50.30
35495;DHT22;75532;49.300;6.846;2024-03-23T01:10:34;22.40;50.60
35495;DHT22;75532;49.300;6.846;2024-03-23T01:13:34;22.40;50.60
35495;DHT22;75532;49.300;6.846;2024-03-23T01:16:35;22.40;50.10
35495;DHT22;75532;49.300;6.846;2024-03-23T01:19:35;22.40;50.10
35495;DHT22;75532;49.300;6.846;2024-03-23T01:22:36;22.40;50.20
35495;DHT22;75532;49.300;6.846;2024-03-23T01:25:37;22.40;50.30
35495;DHT22;75532;49.300;6.846;2024-03-23T01:28:37;22.40;50.60
35495;DHT22;75532;49.300;6.846;2024-03-23T01:31:38;22.40;50.40
35495;DHT22;75532;49.300;6.846;2024-03-23T01:34:38;22.40;50.30
35495;DHT22;75532;49.300;6.846;2024-03-23T01:37:39;22.40;50.50
35495;DHT22;75532;49.300;6.846;2024-03-23T01:40:39;22.40;50.40
35495;DHT22;75532;49.300;6.846;2024-03-23T01:43:40;22.40;50.50
35495;DHT22;75532;49.300;6.846;2024-03-23T01:46:41;22.40;50.60
35495;DHT22;75532;49.300;6.846;2024-03-23T01:49:42;22.40;50.60
35495;DHT22;75532;49.300;6.846;2024-03-23T01:52:43;22.40;50.70
35495;DHT22;75532;49.300;6.846;2024-03-23T01:55:44;22.40;50.80
35495;DHT22;75532;49.300;6.846;2024-03-23T01:58:45;22.40;50.80
35495;DHT22;75532;49.300;6.846;2024-03-23T02:01:45;22.40;50.90
35495;DHT22;75532;49.300;6.846;2024-03-23T02:04:46;22.40;50.90
35495;DHT22;75532;49.300;6.846;2024-03-23T02:07:47;22.40;51.00
35495;DHT22;75532;49.300;6.846;2024-03-23T02:10:48;22.40;50.90
35495;DHT22;75532;49.300;6.846;2024-03-23T02:13:49;22.40;50.90
35495;DHT22;75532;49.300;6.846;2024-03-23T02:16:50;22.40;50.90
35495;DHT22;75532;49.300;6.846;2024-03-23T02:19:51;22.40;50.90
35495;DHT22;75532;49.300;6.846;2024-03-23T02:22:53;22.40;50.80
35495;DHT22;75532;49.300;6.846;2024-03-23T02:25:54;22.40;50.80
35495;DHT22;75532;49.300;6.846;2024-03-23T02:28:54;22.40;50.70
35495;DHT22;75532;49.300;6.846;2024-03-23T02:31:55;22.40;50.70
35495;DHT22;75532;49.300;6.846;2024-03-23T02:34:55;22.30;50.60
35495;DHT22;75532;49.300;6.846;2024-03-23T02:37:56;22.40;50.60
35495;DHT22;75532;49.300;6.846;2024-03-23T02:41:04;22.40;50.80
35495;DHT22;75532;49.300;6.846;2024-03-23T02:44:05;22.30;50.60
35495;DHT22;75532;49.300;6.846;2024-03-23T02:47:06;22.30;50.70
35495;DHT22;75532;49.300;6.846;2024-03-23T02:50:07;22.40;50.90
35495;DHT22;75532;49.300;6.846;2024-03-23T02:53:07;22.30;50.70
35495;DHT22;75532;49.300;6.846;2024-03-23T02:56:08;22.30;50.80
35495;DHT22;75532;49.300;6.846;2024-03-23T02:59:09;22.30;51.10
35495;DHT22;75532;49.300;6.846;2024-03-23T03:02:09;22.30;50.60
35495;DHT22;75532;49.300;6.846;2024-03-23T03:05:10;22.30;50.60
35495;DHT22;75532;49.300;6.846;2024-03-23T03:08:11;22.30;50.60
35495;DHT22;75532;49.300;6.846;2024-03-23T03:11:12;22.30;50.50
35495;DHT22;75532;49.300;6.846;2024-03-23T03:14:12;22.30;50.50
35495;DHT22;75532;49.300;6.846;2024-03-23T03:17:13;22.30;50.50
35495;DHT22;75532;49.300;6.846;2024-03-23T03:20:13;22.30;50.50
35495;DHT22;75532;49.300;6.846;2024-03-23T03:23:16;22.30;50.50
35495;DHT22;75532;49.300;6.846;2024-03-23T03:26:18;22.30;50.50
35495;DHT22;75532;49.300;6.846;2024-03-23T03:29:18;22.30;50.60
35495;DHT22;75532;49.300;6.846;2024-03-23T03:32:19;22.30;50.60
35495;DHT22;75532;49.300;6.846;2024-03-23T03:35:20;22.30;50.60
35495;DHT22;75532;49.300;6.846;2024-03-23T03:38:20;22.30;50.70
35495;DHT22;75532;49.300;6.846;2024-03-23T03:41:21;22.30;50.60
35495;DHT22;75532;49.300;6.846;2024-03-23T03:44:21;22.30;50.50
35495;DHT22;75532;49.300;6.846;2024-03-23T03:47:22;22.30;50.70
35495;DHT22;75532;49.300;6.846;2024-03-23T03:50:23;22.30;51.30
35495;DHT22;75532;49.300;6.846;2024-03-23T03:53:24;22.30;50.60
35495;DHT22;75532;49.300;6.846;2024-03-23T03:56:24;22.30;50.70
35495;DHT22;75532;49.300;6.846;2024-03-23T03:59:26;22.30;50.70
35495;DHT22;75532;49.300;6.846;2024-03-23T04:02:26;22.30;50.70
35495;DHT22;75532;49.300;6.846;2024-03-23T04:05:27;22.30;50.70
35495;DHT22;75532;49.300;6.846;2024-03-23T04:08:27;22.30;50.60
35495;DHT22;75532;49.300;6.846;2024-03-23T04:11:28;22.30;50.50
35495;DHT22;75532;49.300;6.846;2024-03-23T04:14:29;22.20;50.60
35495;DHT22;75532;49.300;6.846;2024-03-23T04:17:29;22.30;50.80
35495;DHT22;75532;49.300;6.846;2024-03-23T04:20:34;22.30;51.00
35495;DHT22;75532;49.300;6.846;2024-03-23T04:23:35;22.30;51.00
35495;DHT22;75532;49.300;6.846;2024-03-23T04:26:42;22.30;51.00
35495;DHT22;75532;49.300;6.846;2024-03-23T04:29:46;22.30;51.00
35495;DHT22;75532;49.300;6.846;2024-03-23T04:32:47;22.30;50.60
35495;DHT22;75532;49.300;6.846;2024-03-23T04:35:49;22.30;50.60
35495;DHT22;75532;49.300;6.846;2024-03-23T04:38:50;22.30;50.40
35495;DHT22;75532;49.300;6.846;2024-03-23T04:41:52;22.30;50.40
35495;DHT22;75532;49.300;6.846;2024-03-23T04:44:53;22.30;50.40
35495;DHT22;75532;49.300;6.846;2024-03-23T04:47:54;22.30;50.70
35495;DHT22;75532;49.300;6.846;2024-03-23T04:50:55;22.30;51.00
35495;DHT22;75532;49.300;6.846;2024-03-23T04:53:57;22.30;50.80
35495;DHT22;75532;49.300;6.846;2024-03-23T04:56:58;22.30;51.00
35495;DHT22;75532;49.300;6.846;2024-03-23T04:59:59;22.30;50.30
35495;DHT22;75532;49.300;6.846;2024-03-23T05:02:59;22.30;50.20
35495;DHT22;75532;49.300;6.846;2024-03-23T05:06:00;22.40;50.70
35495;DHT22;75532;49.300;6.846;2024-03-23T05:09:01;22.30;50.80
35495;DHT22;75532;49.300;6.846;2024-03-23T05:12:08;22.30;50.70
35495;DHT22;75532;49.300;6.846;2024-03-23T05:15:08;22.30;51.00
35495;DHT22;75532;49.300;6.846;2024-03-23T05:18:09;22.40;51.50
35495;DHT22;75532;49.300;6.846;2024-03-23T05:21:10;22.40;51.10
35495;DHT22;75532;49.300;6.846;2024-03-23T05:24:11;22.40;50.70
35495;DHT22;75532;49.300;6.846;2024-03-23T05:27:12;22.40;50.30
35495;DHT22;75532;49.300;6.846;2024-03-23T05:30:13;22.30;50.30
35495;DHT22;75532;49.300;6.846;2024-03-23T05:33:15;22.30;50.10
35495;DHT22;75532;49.300;6.846;2024-03-23T05:36:17;22.30;49.80
35495;DHT22;75532;49.300;6.846;2024-03-23T05:39:17;22.10;49.40
35495;DHT22;75532;49.300;6.846;2024-03-23T05:42:18;22.00;48.30
35495;DHT22;75532;49.300;6.846;2024-03-23T05:45:19;21.90;48.20
35495;DHT22;75532;49.300;6.846;2024-03-23T05:48:20;22.00;48.10
35495;DHT22;75532;49.300;6.846;2024-03-23T05:51:20;22.00;48.40
35495;DHT22;75532;49.300;6.846;2024-03-23T05:54:21;22.00;48.30
35495;DHT22;75532;49.300;6.846;2024-03-23T05:57:21;22.10;48.20
35495;DHT22;75532;49.300;6.846;2024-03-23T06:00:22;22.10;48.40
35495;DHT22;75532;49.300;6.846;2024-03-23T06:03:22;22.20;49.50
35495;DHT22;75532;49.300;6.846;2024-03-23T06:06:23;22.30;49.70
35495;DHT22;75532;49.300;6.846;2024-03-23T06:09:24;22.30;49.70
35495;DHT22;75532;49.300;6.846;2024-03-23T06:12:24;22.30;50.50
35495;DHT22;75532;49.300;6.846;2024-03-23T06:15:25;22.40;50.90
35495;DHT22;75532;49.300;6.846;2024-03-23T06:18:26;22.40;51.40
35495;DHT22;75532;49.300;6.846;2024-03-23T06:21:27;22.40;51.00
35495;DHT22;75532;49.300;6.846;2024-03-23T06:24:28;22.30;47.10
35495;DHT22;75532;49.300;6.846;2024-03-23T06:27:28;22.20;47.30
35495;DHT22;75532;49.300;6.846;2024-03-23T06:30:29;22.20;48.90
35495;DHT22;75532;49.300;6.846;2024-03-23T06:33:30;22.20;49.20
35495;DHT22;75532;49.300;6.846;2024-03-23T06:36:30;22.20;50.00
35495;DHT22;75532;49.300;6.846;2024-03-23T06:39:31;22.30;50.30
35495;DHT22;75532;49.300;6.846;2024-03-23T06:42:32;22.30;50.60
35495;DHT22;75532;49.300;6.846;2024-03-23T06:45:32;22.30;50.70
35495;DHT22;75532;49.300;6.846;2024-03-23T06:48:33;22.30;51.00
35495;DHT22;75532;49.300;6.846;2024-03-23T06:51:34;22.40;51.00
35495;DHT22;75532;49.300;6.846;2024-03-23T06:54:34;22.30;51.10
35495;DHT22;75532;49.300;6.846;2024-03-23T06:57:35;22.40;50.90
35495;DHT22;75532;49.300;6.846;2024-03-23T07:00:36;22.40;50.80
35495;DHT22;75532;49.300;6.846;2024-03-23T07:03:36;22.30;50.50
35495;DHT22;75532;49.300;6.846;2024-03-23T07:06:45;22.30;50.70
35495;DHT22;75532;49.300;6.846;2024-03-23T07:09:45;22.30;50.00
35495;DHT22;75532;49.300;6.846;2024-03-23T07:12:46;22.30;50.00
35495;DHT22;75532;49.300;6.846;2024-03-23T07:15:53;22.20;49.60
35495;DHT22;75532;49.300;6.846;2024-03-23T07:18:55;22.30;50.10
35495;DHT22;75532;49.300;6.846;2024-03-23T07:21:56;22.30;49.80
35495;DHT22;75532;49.300;6.846;2024-03-23T07:24:56;22.30;49.50
35495;DHT22;75532;49.300;6.846;2024-03-23T07:27:57;22.30;49.40
35495;DHT22;75532;49.300;6.846;2024-03-23T07:31:15;22.40;49.50
35495;DHT22;75532;49.300;6.846;2024-03-23T07:34:16;22.40;49.60
35495;DHT22;75532;49.300;6.846;2024-03-23T07:37:16;22.40;49.60
35495;DHT22;75532;49.300;6.846;2024-03-23T07:40:17;22.40;49.60
35495;DHT22;75532;49.300;6.846;2024-03-23T07:43:17;22.30;49.50
35495;DHT22;75532;49.300;6.846;2024-03-23T07:46:18;22.40;49.60
35495;DHT22;75532;49.300;6.846;2024-03-23T07:49:19;22.40;49.50
35495;DHT22;75532;49.300;6.846;2024-03-23T07:52:20;22.40;49.70
35495;DHT22;75532;49.300;6.846;2024-03-23T07:55:21;22.40;49.60
35495;DHT22;75532;49.300;6.846;2024-03-23T07:58:22;22.30;49.60
35495;DHT22;75532;49.300;6.846;2024-03-23T08:01:23;22.30;49.50
35495;DHT22;75532;49.300;6.846;2024-03-23T08:04:24;22.30;49.60
35495;DHT22;75532;49.300;6.846;2024-03-23T08:07:24;22.30;49.70
35495;DHT22;75532;49.300;6.846;2024-03-23T08:10:26;22.30;49.60
35495;DHT22;75532;49.300;6.846;2024-03-23T08:13:26;22.30;49.60
35495;DHT22;75532;49.300;6.846;2024-03-23T08:16:27;22.30;49.50
35495;DHT22;75532;49.300;6.846;2024-03-23T08:19:28;22.30;49.50
35495;DHT22;75532;49.300;6.846;2024-03-23T08:22:29;22.30;49.40
35495;DHT22;75532;49.300;6.846;2024-03-23T08:25:32;22.30;49.50
35495;DHT22;75532;49.300;6.846;2024-03-23T08:28:33;22.30;49.40
35495;DHT22;75532;49.300;6.846;2024-03-23T08:31:34;22.30;49.40
35495;DHT22;75532;49.300;6.846;2024-03-23T08:34:34;22.30;49.50
35495;DHT22;75532;49.300;6.846;2024-03-23T08:37:35;22.30;49.50
35495;DHT22;75532;49.300;6.846;2024-03-23T08:40:35;22.30;49.40
35495;DHT22;75532;49.300;6.846;2024-03-23T08:43:38;22.30;49.80
35495;DHT22;75532;49.300;6.846;2024-03-23T08:46:39;22.30;49.80
35495;DHT22;75532;49.300;6.846;2024-03-23T08:49:40;22.30;49.80
35495;DHT22;75532;49.300;6.846;2024-03-23T08:52:40;22.30;49.70
35495;DHT22;75532;49.300;6.846;2024-03-23T08:55:41;22.30;49.70
35495;DHT22;75532;49.300;6.846;2024-03-23T08:58:41;22.30;49.70
35495;DHT22;75532;49.300;6.846;2024-03-23T09:01:42;22.30;50.40
35495;DHT22;75532;49.300;6.846;2024-03-23T09:04:44;22.30;49.80
35495;DHT22;75532;49.300;6.846;2024-03-23T09:07:45;22.30;49.80
35495;DHT22;75532;49.300;6.846;2024-03-23T09:10:46;22.30;49.80
35495;DHT22;75532;49.300;6.846;2024-03-23T09:13:47;22.30;49.80
35495;DHT22;75532;49.300;6.846;2024-03-23T09:16:50;22.40;50.00
35495;DHT22;75532;49.300;6.846;2024-03-23T09:19:51;22.30;49.90
35495;DHT22;75532;49.300;6.846;2024-03-23T09:22:52;22.30;49.90
35495;DHT22;75532;49.300;6.846;2024-03-23T09:25:52;22.30;49.90
35495;DHT22;75532;49.300;6.846;2024-03-23T09:28:53;22.30;50.00
35495;DHT22;75532;49.300;6.846;2024-03-23T09:31:54;22.30;50.00
35495;DHT22;75532;49.300;6.846;2024-03-23T09:34:55;22.30;50.00
35495;DHT22;75532;49.300;6.846;2024-03-23T09:37:55;22.30;49.90
35495;DHT22;75532;49.300;6.846;2024-03-23T09:40:58;22.30;50.00
35495;DHT22;75532;49.300;6.846;2024-03-23T09:43:59;22.30;50.00
35495;DHT22;75532;49.300;6.846;2024-03-23T09:46:59;22.30;50.00
35495;DHT22;75532;49.300;6.846;2024-03-23T09:50:01;22.40;50.10
35495;DHT22;75532;49.300;6.846;2024-03-23T09:53:01;22.30;50.60
35495;DHT22;75532;49.300;6.846;2024-03-23T09:56:03;22.30;50.00
35495;DHT22;75532;49.300;6.846;2024-03-23T09:59:03;22.30;50.00
35495;DHT22;75532;49.300;6.846;2024-03-23T10:02:05;22.30;50.00
35495;DHT22;75532;49.300;6.846;2024-03-23T10:05:22;22.30;50.00
35495;DHT22;75532;49.300;6.846;2024-03-23T10:08:23;22.30;50.00
35495;DHT22;75532;49.300;6.846;2024-03-23T10:11:24;22.30;50.00
35495;DHT22;75532;49.300;6.846;2024-03-23T10:14:29;22.30;50.00
35495;DHT22;75532;49.300;6.846;2024-03-23T10:17:30;22.30;50.00
35495;DHT22;75532;49.300;6.846;2024-03-23T10:20:30;22.30;50.10
35495;DHT22;75532;49.300;6.846;2024-03-23T10:23:35;22.30;50.30
35495;DHT22;75532;49.300;6.846;2024-03-23T10:26:35;22.20;50.10
35495;DHT22;75532;49.300;6.846;2024-03-23T10:29:36;22.20;50.10
35495;DHT22;75532;49.300;6.846;2024-03-23T10:32:38;22.30;50.20
35495;DHT22;75532;49.300;6.846;2024-03-23T10:35:38;22.20;50.00
35495;DHT22;75532;49.300;6.846;2024-03-23T10:38:41;22.20;50.00
35495;DHT22;75532;49.300;6.846;2024-03-23T10:41:42;22.20;50.00
35495;DHT22;75532;49.300;6.846;2024-03-23T10:44:43;22.30;50.00
35495;DHT22;75532;49.300;6.846;2024-03-23T10:47:44;22.20;50.00
35495;DHT22;75532;49.300;6.846;2024-03-23T10:50:44;22.30;49.90
35495;DHT22;75532;49.300;6.846;2024-03-23T10:53:45;22.30;50.00
35495;DHT22;75532;49.300;6.846;2024-03-23T10:56:47;22.30;50.00
35495;DHT22;75532;49.300;6.846;2024-03-23T10:59:48;22.30;49.90
35495;DHT22;75532;49.300;6.846;2024-03-23T11:02:49;22.30;50.00
35495;DHT22;75532;49.300;6.846;2024-03-23T11:05:50;22.30;50.00
35495;DHT22;75532;49.300;6.846;2024-03-23T11:08:50;22.30;50.00
35495;DHT22;75532;49.300;6.846;2024-03-23T11:11:51;22.20;49.90
35495;DHT22;75532;49.300;6.846;2024-03-23T11:15:06;22.20;49.90
35495;DHT22;75532;49.300;6.846;2024-03-23T11:18:11;22.20;49.90
35495;DHT22;75532;49.300;6.846;2024-03-23T11:24:51;22.20;50.00
35495;DHT22;75532;49.300;6.846;2024-03-23T11:28:11;22.20;50.00
35495;DHT22;75532;49.300;6.846;2024-03-23T11:31:12;22.30;50.20
35495;DHT22;75532;49.300;6.846;2024-03-23T11:34:12;22.20;50.10
35495;DHT22;75532;49.300;6.846;2024-03-23T11:37:13;22.20;50.20
35495;DHT22;75532;49.300;6.846;2024-03-23T11:40:18;22.20;50.20
35495;DHT22;75532;49.300;6.846;2024-03-23T11:43:20;22.20;50.00
35495;DHT22;75532;49.300;6.846;2024-03-23T11:46:22;22.20;49.80
35495;DHT22;75532;49.300;6.846;2024-03-23T11:49:24;22.20;49.80
35495;DHT22;75532;49.300;6.846;2024-03-23T11:52:25;22.30;49.80
35495;DHT22;75532;49.300;6.846;2024-03-23T11:55:25;22.20;49.80
35495;DHT22;75532;49.300;6.846;2024-03-23T11:58:27;22.20;49.90
35495;DHT22;75532;49.300;6.846;2024-03-23T12:01:27;22.30;49.90
35495;DHT22;75532;49.300;6.846;2024-03-23T12:04:28;22.20;49.80
35495;DHT22;75532;49.300;6.846;2024-03-23T12:07:29;22.30;49.90
35495;DHT22;75532;49.300;6.846;2024-03-23T12:10:30;22.30;49.90
35495;DHT22;75532;49.300;6.846;2024-03-23T12:13:30;22.30;49.90
35495;DHT22;75532;49.300;6.846;2024-03-23T12:16:31;22.30;49.90
35495;DHT22;75532;49.300;6.846;2024-03-23T12:19:31;22.30;50.40
35495;DHT22;75532;49.300;6.846;2024-03-23T12:22:32;22.30;49.80
35495;DHT22;75532;49.300;6.846;2024-03-23T12:25:35;22.20;49.80
35495;DHT22;75532;49.300;6.846;2024-03-23T12:28:36;22.30;50.50
35495;DHT22;75532;49.300;6.846;2024-03-23T12:31:37;22.30;49.90
35495;DHT22;75532;49.300;6.846;2024-03-23T12:34:38;22.30;49.90
35495;DHT22;75532;49.300;6.846;2024-03-23T12:37:38;22.20;49.90
35495;DHT22;75532;49.300;6.846;2024-03-23T12:40:39;22.30;49.90
35495;DHT22;75532;49.300;6.846;2024-03-23T12:43:41;22.30;49.90
35495;DHT22;75532;49.300;6.846;2024-03-23T12:46:42;22.30;50.00
35495;DHT22;75532;49.300;6.846;2024-03-23T12:49:42;22.30;50.10
35495;DHT22;75532;49.300;6.846;2024-03-23T12:52:43;22.30;50.10
35495;DHT22;75532;49.300;6.846;2024-03-23T12:55:44;22.30;50.00
35495;DHT22;75532;49.300;6.846;2024-03-23T12:58:44;22.30;50.00
35495;DHT22;75532;49.300;6.846;2024-03-23T13:01:45;22.30;50.00
35495;DHT22;75532;49.300;6.846;2024-03-23T13:04:55;22.30;50.60
35495;DHT22;75532;49.300;6.846;2024-03-23T13:07:56;22.30;50.10
35495;DHT22;75532;49.300;6.846;2024-03-23T13:10:57;22.30;49.90
35495;DHT22;75532;49.300;6.846;2024-03-23T13:13:57;22.30;49.90
35495;DHT22;75532;49.300;6.846;2024-03-23T13:16:58;22.30;50.00
35495;DHT22;75532;49.300;6.846;2024-03-23T13:19:59;22.30;50.00
35495;DHT22;75532;49.300;6.846;2024-03-23T13:22:59;22.30;49.80
35495;DHT22;75532;49.300;6.846;2024-03-23T13:26:00;22.40;50.10
35495;DHT22;75532;49.300;6.846;2024-03-23T13:29:01;22.30;50.00
35495;DHT22;75532;49.300;6.846;2024-03-23T13:32:01;22.30;50.00
35495;DHT22;75532;49.300;6.846;2024-03-23T13:35:02;22.30;50.00
35495;DHT22;75532;49.300;6.846;2024-03-23T13:38:03;22.40;50.20
35495;DHT22;75532;49.300;6.846;2024-03-23T13:41:04;22.40;50.10
35495;DHT22;75532;49.300;6.846;2024-03-23T13:44:07;22.40;50.20
35495;DHT22;75532;49.300;6.846;2024-03-23T13:47:08;22.40;50.10
35495;DHT22;75532;49.300;6.846;2024-03-23T13:50:09;22.40;50.20
35495;DHT22;75532;49.300;6.846;2024-03-23T13:53:09;22.40;50.20
35495;DHT22;75532;49.300;6.846;2024-03-23T13:56:10;22.40;50.20
35495;DHT22;75532;49.300;6.846;2024-03-23T13:59:10;22.40;50.20
35495;DHT22;75532;49.300;6.846;2024-03-23T14:02:12;22.40;50.10
35495;DHT22;75532;49.300;6.846;2024-03-23T14:05:15;22.30;50.10
35495;DHT22;75532;49.300;6.846;2024-03-23T14:08:15;22.30;50.00
35495;DHT22;75532;49.300;6.846;2024-03-23T14:11:18;22.30;50.10
35495;DHT22;75532;49.300;6.846;2024-03-23T14:14:19;22.30;50.00
35495;DHT22;75532;49.300;6.846;2024-03-23T14:17:21;22.30;50.10
35495;DHT22;75532;49.300;6.846;2024-03-23T14:20:22;22.30;50.10
35495;DHT22;75532;49.300;6.846;2024-03-23T14:23:23;22.40;50.20
35495;DHT22;75532;49.300;6.846;2024-03-23T14:26:23;22.40;50.20
35495;DHT22;75532;49.300;6.846;2024-03-23T14:29:24;22.30;50.70
35495;DHT22;75532;49.300;6.846;2024-03-23T14:32:25;22.30;50.40
35495;DHT22;75532;49.300;6.846;2024-03-23T14:35:26;22.40;50.40
35495;DHT22;75532;49.300;6.846;2024-03-23T14:38:27;22.40;50.40
35495;DHT22;75532;49.300;6.846;2024-03-23T14:41:27;22.40;50.40
35495;DHT22;75532;49.300;6.846;2024-03-23T14:44:28;22.40;50.40
35495;DHT22;75532;49.300;6.846;2024-03-23T14:47:29;22.40;50.40
35495;DHT22;75532;49.300;6.846;2024-03-23T14:50:29;22.40;50.40
35495;DHT22;75532;49.300;6.846;2024-03-23T14:53:31;22.40;50.30
35495;DHT22;75532;49.300;6.846;2024-03-23T14:56:31;22.40;50.30
35495;DHT22;75532;49.300;6.846;2024-03-23T14:59:32;22.40;50.30
35495;DHT22;75532;49.300;6.846;2024-03-23T15:02:33;22.40;50.30
35495;DHT22;75532;49.300;6.846;2024-03-23T15:05:33;22.40;50.20
35495;DHT22;75532;49.300;6.846;2024-03-23T15:08:34;22.40;50.20
35495;DHT22;75532;49.300;6.846;2024-03-23T15:11:34;22.40;50.20
35495;DHT22;75532;49.300;6.846;2024-03-23T15:14:35;22.40;50.20
35495;DHT22;75532;49.300;6.846;2024-03-23T15:17:36;22.40;50.20
35495;DHT22;75532;49.300;6.846;2024-03-23T15:20:41;22.30;50.10
35495;DHT22;75532;49.300;6.846;2024-03-23T15:23:42;22.30;50.20
35495;DHT22;75532;49.300;6.846;2024-03-23T15:26:44;22.30;50.10
35495;DHT22;75532;49.300;6.846;2024-03-23T15:29:44;22.30;50.10
35495;DHT22;75532;49.300;6.846;2024-03-23T15:32:46;22.30;50.10
35495;DHT22;75532;49.300;6.846;2024-03-23T15:35:47;22.30;50.20
35495;DHT22;75532;49.300;6.846;2024-03-23T15:38:48;22.30;50.10
35495;DHT22;75532;49.300;6.846;2024-03-23T15:41:49;22.30;50.20
35495;DHT22;75532;49.300;6.846;2024-03-23T15:44:50;22.30;50.20
35495;DHT22;75532;49.300;6.846;2024-03-23T15:47:50;22.30;50.20
35495;DHT22;75532;49.300;6.846;2024-03-23T15:50:53;22.20;50.10
35495;DHT22;75532;49.300;6.846;2024-03-23T15:53:53;22.20;50.10
35495;DHT22;75532;49.300;6.846;2024-03-23T15:56:57;22.20;50.10
35495;DHT22;75532;49.300;6.846;2024-03-23T15:59:58;22.20;49.90
35495;DHT22;75532;49.300;6.846;2024-03-23T16:02:58;22.20;50.00
35495;DHT22;75532;49.300;6.846;2024-03-23T16:06:00;22.20;49.70
35495;DHT22;75532;49.300;6.846;2024-03-23T16:09:01;22.20;49.80
35495;DHT22;75532;49.300;6.846;2024-03-23T16:12:04;22.20;49.70
35495;DHT22;75532;49.300;6.846;2024-03-23T16:15:05;22.20;49.70
35495;DHT22;75532;49.300;6.846;2024-03-23T16:18:06;22.20;49.60
35495;DHT22;75532;49.300;6.846;2024-03-23T16:21:07;22.20;49.60
35495;DHT22;75532;49.300;6.846;2024-03-23T16:24:07;22.20;49.70
35495;DHT22;75532;49.300;6.846;2024-03-23T16:27:11;22.20;49.80
35495;DHT22;75532;49.300;6.846;2024-03-23T16:30:12;22.20;49.80
35495;DHT22;75532;49.300;6.846;2024-03-23T16:33:13;22.20;49.80
35495;DHT22;75532;49.300;6.846;2024-03-23T16:36:14;22.20;49.90
35495;DHT22;75532;49.300;6.846;2024-03-23T16:39:14;22.20;50.20
35495;DHT22;75532;49.300;6.846;2024-03-23T16:42:15;22.20;50.10
35495;DHT22;75532;49.300;6.846;2024-03-23T16:45:16;22.20;50.10
35495;DHT22;75532;49.300;6.846;2024-03-23T16:48:16;22.20;50.10
35495;DHT22;75532;49.300;6.846;2024-03-23T16:51:17;22.20;50.00
35495;DHT22;75532;49.300;6.846;2024-03-23T16:54:18;22.20;50.10
35495;DHT22;75532;49.300;6.846;2024-03-23T16:57:19;22.20;50.00
35495;DHT22;75532;49.300;6.846;2024-03-23T17:00:19;22.20;50.00
35495;DHT22;75532;49.300;6.846;2024-03-23T17:03:20;22.20;50.00
35495;DHT22;75532;49.300;6.846;2024-03-23T17:06:20;22.20;49.90
35495;DHT22;75532;49.300;6.846;2024-03-23T17:09:23;22.20;49.40
35495;DHT22;75532;49.300;6.846;2024-03-23T17:12:24;22.20;49.40
35495;DHT22;75532;49.300;6.846;2024-03-23T17:15:24;22.20;49.60
35495;DHT22;75532;49.300;6.846;2024-03-23T17:18:25;22.20;49.50
35495;DHT22;75532;49.300;6.846;2024-03-23T17:21:25;22.20;49.30
35495;DHT22;75532;49.300;6.846;2024-03-23T17:24:27;22.10;49.20
35495;DHT22;75532;49.300;6.846;2024-03-23T17:27:28;22.20;49.70
35495;DHT22;75532;49.300;6.846;2024-03-23T17:30:29;22.20;49.10
35495;DHT22;75532;49.300;6.846;2024-03-23T17:33:32;22.10;49.00
35495;DHT22;75532;49.300;6.846;2024-03-23T17:36:32;22.10;49.10
35495;DHT22;75532;49.300;6.846;2024-03-23T17:39:33;22.10;49.20
35495;DHT22;75532;49.300;6.846;2024-03-23T17:42:34;22.10;49.10
35495;DHT22;75532;49.300;6.846;2024-03-23T17:45:35;22.10;48.90
35495;DHT22;75532;49.300;6.846;2024-03-23T17:48:36;22.10;49.00
35495;DHT22;75532;49.300;6.846;2024-03-23T17:51:37;22.10;48.90
35495;DHT22;75532;49.300;6.846;2024-03-23T17:54:38;22.10;48.90
35495;DHT22;75532;49.300;6.846;2024-03-23T17:57:39;22.10;48.90
35495;DHT22;75532;49.300;6.846;2024-03-23T18:00:40;22.10;48.90
35495;DHT22;75532;49.300;6.846;2024-03-23T18:03:41;22.10;48.90
35495;DHT22;75532;49.300;6.846;2024-03-23T18:06:41;22.10;49.00
35495;DHT22;75532;49.300;6.846;2024-03-23T18:09:42;22.10;48.80
35495;DHT22;75532;49.300;6.846;2024-03-23T18:12:43;22.10;49.00
35495;DHT22;75532;49.300;6.846;2024-03-23T18:15:54;22.10;49.00
35495;DHT22;75532;49.300;6.846;2024-03-23T18:18:55;22.10;48.90
35495;DHT22;75532;49.300;6.846;2024-03-23T18:21:55;22.10;49.80
35495;DHT22;75532;49.300;6.846;2024-03-23T18:24:56;22.10;49.90
35495;DHT22;75532;49.300;6.846;2024-03-23T18:27:57;22.10;50.00
35495;DHT22;75532;49.300;6.846;2024-03-23T18:31:00;22.10;49.90
35495;DHT22;75532;49.300;6.846;2024-03-23T18:34:01;22.10;49.90
35495;DHT22;75532;49.300;6.846;2024-03-23T18:37:01;22.10;49.90
35495;DHT22;75532;49.300;6.846;2024-03-23T18:40:02;22.10;49.90
35495;DHT22;75532;49.300;6.846;2024-03-23T18:43:03;22.10;49.90
35495;DHT22;75532;49.300;6.846;2024-03-23T18:46:03;22.20;49.90
35495;DHT22;75532;49.300;6.846;2024-03-23T18:49:04;22.10;49.80
35495;DHT22;75532;49.300;6.846;2024-03-23T18:52:05;22.10;49.80
35495;DHT22;75532;49.300;6.846;2024-03-23T18:55:08;22.10;49.30
35495;DHT22;75532;49.300;6.846;2024-03-23T18:58:09;22.10;49.20
35495;DHT22;75532;49.300;6.846;2024-03-23T19:01:10;22.10;49.10
35495;DHT22;75532;49.300;6.846;2024-03-23T19:04:11;22.10;48.90
35495;DHT22;75532;49.300;6.846;2024-03-23T19:07:11;22.10;49.20
35495;DHT22;75532;49.300;6.846;2024-03-23T19:10:12;22.10;48.80
35495;DHT22;75532;49.300;6.846;2024-03-23T19:13:12;22.10;48.80
35495;DHT22;75532;49.300;6.846;2024-03-23T19:16:13;22.00;48.70
35495;DHT22;75532;49.300;6.846;2024-03-23T19:19:15;22.10;48.80
35495;DHT22;75532;49.300;6.846;2024-03-23T19:22:16;22.00;48.70
35495;DHT22;75532;49.300;6.846;2024-03-23T19:25:17;22.10;48.70
35495;DHT22;75532;49.300;6.846;2024-03-23T19:28:17;22.00;48.70
35495;DHT22;75532;49.300;6.846;2024-03-23T19:31:18;22.00;48.70
35495;DHT22;75532;49.300;6.846;2024-03-23T19:34:19;22.00;48.60
35495;DHT22;75532;49.300;6.846;2024-03-23T19:37:19;22.00;48.70
35495;DHT22;75532;49.300;6.846;2024-03-23T19:40:20;22.00;48.70
35495;DHT22;75532;49.300;6.846;2024-03-23T19:43:21;22.00;48.60
35495;DHT22;75532;49.300;6.846;2024-03-23T19:46:21;22.00;48.70
35495;DHT22;75532;49.300;6.846;2024-03-23T19:49:23;22.00;48.70
35495;DHT22;75532;49.300;6.846;2024-03-23T19:52:27;22.00;48.80
35495;DHT22;75532;49.300;6.846;2024-03-23T19:55:27;22.00;48.70
35495;DHT22;75532;49.300;6.846;2024-03-23T19:58:28;22.00;48.50